createdAt,value
2023-03-31T00:00:49.453Z,44.79
2023-03-31T00:01:49.475Z,44.31
2023-03-31T00:02:49.593Z,45.76
2023-03-31T00:03:49.609Z,46.25
2023-03-31T00:04:49.517Z,45.60
2023-03-31T00:05:49.504Z,45.12
2023-03-31T00:06:49.456Z,44.96
2023-03-31T00:07:49.673Z,45.76
2023-03-31T00:08:49.422Z,45.76
2023-03-31T00:09:49.406Z,45.12
2023-03-31T00:10:49.441Z,45.44
2023-03-31T00:11:49.441Z,46.08
2023-03-31T00:12:49.493Z,44.79
2023-03-31T00:13:49.470Z,45.76
2023-03-31T00:14:49.379Z,45.60
2023-03-31T00:15:50.056Z,45.76
2023-03-31T00:16:49.479Z,46.25
2023-03-31T00:17:49.424Z,45.44
2023-03-31T00:18:49.387Z,45.76
2023-03-31T00:19:49.436Z,44.96
2023-03-31T00:20:49.343Z,46.08
2023-03-31T00:21:49.332Z,45.92
2023-03-31T00:22:49.340Z,46.08
2023-03-31T00:23:49.421Z,45.92
2023-03-31T00:24:49.347Z,45.12
2023-03-31T00:25:49.405Z,45.60
2023-03-31T00:26:49.332Z,45.44
2023-03-31T00:27:49.325Z,45.60
2023-03-31T00:28:49.285Z,46.57
2023-03-31T00:29:49.266Z,45.12
2023-03-31T00:30:49.421Z,45.60
2023-03-31T00:31:49.414Z,44.96
2023-03-31T00:32:49.363Z,44.79
2023-03-31T00:33:49.290Z,44.79
2023-03-31T00:34:49.231Z,45.12
2023-03-31T00:35:49.272Z,45.28
2023-03-31T00:36:49.235Z,46.08
2023-03-31T00:37:49.201Z,45.28
2023-03-31T00:38:49.209Z,44.96
2023-03-31T00:39:49.206Z,44.79
2023-03-31T00:40:50.246Z,45.76
2023-03-31T00:41:49.202Z,45.44
2023-03-31T00:42:49.190Z,45.60
2023-03-31T00:43:49.220Z,46.08
2023-03-31T00:44:49.323Z,46.08
2023-03-31T00:45:49.348Z,45.76
2023-03-31T00:46:49.141Z,44.96
2023-03-31T00:47:49.179Z,46.08
2023-03-31T00:48:49.184Z,45.92
2023-03-31T00:49:49.150Z,45.12
2023-03-31T00:50:49.207Z,44.79
2023-03-31T00:51:49.148Z,44.96
2023-03-31T00:52:49.108Z,45.12
2023-03-31T00:53:49.121Z,44.96
2023-03-31T00:54:49.282Z,45.60
2023-03-31T00:55:49.131Z,45.92
2023-03-31T00:56:49.170Z,46.57
2023-03-31T00:57:49.064Z,45.60
2023-03-31T00:58:49.060Z,46.57
2023-03-31T00:59:49.058Z,46.08
2023-03-31T01:00:49.171Z,45.12
2023-03-31T01:01:49.117Z,45.44
2023-03-31T01:02:49.025Z,46.25
2023-03-31T01:03:49.080Z,45.44
2023-03-31T01:04:48.993Z,46.73
2023-03-31T01:05:48.991Z,46.08
2023-03-31T01:06:48.997Z,45.76
2023-03-31T01:07:48.975Z,45.28
2023-03-31T01:08:49.004Z,46.08
2023-03-31T01:09:48.995Z,44.79
2023-03-31T01:10:48.955Z,45.44
2023-03-31T01:11:48.959Z,46.57
2023-03-31T01:12:48.952Z,44.96
2023-03-31T01:13:48.975Z,46.08
2023-03-31T01:14:48.933Z,45.60
2023-03-31T01:15:48.936Z,45.60
2023-03-31T01:16:49.019Z,45.60
2023-03-31T01:17:49.023Z,45.60
2023-03-31T01:18:48.992Z,46.25
2023-03-31T01:19:48.918Z,46.57
2023-03-31T01:20:48.886Z,45.44
2023-03-31T01:21:48.898Z,46.57
2023-03-31T01:22:48.888Z,45.92
2023-03-31T01:23:48.889Z,45.60
2023-03-31T01:24:48.859Z,46.41
2023-03-31T01:25:48.854Z,45.76
2023-03-31T01:26:48.895Z,46.25
2023-03-31T01:27:48.842Z,45.44
2023-03-31T01:28:48.858Z,45.76
2023-03-31T01:29:48.842Z,45.60
2023-03-31T01:30:48.812Z,46.41
2023-03-31T01:31:48.891Z,45.92
2023-03-31T01:32:48.837Z,45.92
2023-03-31T01:33:48.823Z,46.25
2023-03-31T01:34:48.782Z,45.44
2023-03-31T01:35:48.858Z,46.41
2023-03-31T01:36:48.777Z,45.92
2023-03-31T01:37:48.769Z,44.96
2023-03-31T01:38:48.782Z,47.05
2023-03-31T01:39:48.774Z,46.08
2023-03-31T01:40:48.744Z,46.41
2023-03-31T01:41:48.729Z,46.08
2023-03-31T01:42:48.748Z,46.41
2023-03-31T01:43:48.771Z,45.76
2023-03-31T01:44:48.737Z,46.57
2023-03-31T01:45:48.704Z,47.05
2023-03-31T01:46:48.790Z,45.60
2023-03-31T01:47:48.739Z,46.41
2023-03-31T01:48:48.739Z,45.60
2023-03-31T01:49:48.708Z,45.60
2023-03-31T01:50:48.689Z,45.44
2023-03-31T01:51:48.714Z,46.25
2023-03-31T01:52:48.678Z,46.08
2023-03-31T01:53:48.674Z,45.92
2023-03-31T01:54:48.650Z,46.25
2023-03-31T01:55:48.638Z,45.76
2023-03-31T01:56:48.711Z,47.05
2023-03-31T01:57:48.618Z,46.08
2023-03-31T01:58:48.635Z,45.60
2023-03-31T01:59:48.606Z,45.76
2023-03-31T02:00:48.656Z,47.37
2023-03-31T02:01:48.633Z,46.08
2023-03-31T02:02:48.762Z,46.25
2023-03-31T02:03:48.891Z,45.60
2023-03-31T02:04:49.607Z,46.25
2023-03-31T02:05:48.608Z,46.73
2023-03-31T02:06:48.559Z,45.60
2023-03-31T02:07:48.563Z,46.73
2023-03-31T02:08:48.599Z,46.41
2023-03-31T02:09:48.540Z,46.57
2023-03-31T02:10:48.538Z,46.41
2023-03-31T02:11:48.563Z,45.92
2023-03-31T02:12:48.525Z,45.60
2023-03-31T02:13:48.536Z,46.73
2023-03-31T02:14:48.538Z,45.60
2023-03-31T02:15:48.540Z,46.25
2023-03-31T02:16:48.578Z,45.60
2023-03-31T02:17:48.534Z,45.44
2023-03-31T02:18:48.559Z,45.92
2023-03-31T02:19:48.469Z,48.18
2023-03-31T02:20:48.506Z,47.05
2023-03-31T02:21:48.463Z,46.25
2023-03-31T02:22:48.471Z,45.60
2023-03-31T02:23:48.477Z,46.08
2023-03-31T02:24:48.436Z,46.73
2023-03-31T02:25:48.447Z,45.92
2023-03-31T02:26:48.456Z,46.25
2023-03-31T02:27:48.416Z,45.28
2023-03-31T02:28:48.439Z,45.12
2023-03-31T02:29:48.417Z,45.76
2023-03-31T02:30:48.393Z,44.96
2023-03-31T02:31:48.473Z,45.44
2023-03-31T02:32:48.456Z,45.60
2023-03-31T02:33:48.396Z,45.60
2023-03-31T02:34:48.407Z,46.57
2023-03-31T02:35:48.428Z,46.25
2023-03-31T02:36:48.353Z,45.92
2023-03-31T02:37:48.355Z,45.28
2023-03-31T02:38:48.357Z,46.08
2023-03-31T02:39:48.360Z,46.89
2023-03-31T02:40:48.325Z,45.92
2023-03-31T02:41:48.330Z,45.12
2023-03-31T02:42:48.311Z,45.60
2023-03-31T02:43:48.329Z,46.41
2023-03-31T02:44:48.301Z,46.41
2023-03-31T02:45:48.366Z,47.37
2023-03-31T02:46:48.285Z,47.05
2023-03-31T02:47:48.361Z,47.37
2023-03-31T02:48:48.317Z,46.41
2023-03-31T02:49:48.268Z,46.89
2023-03-31T02:50:48.261Z,46.41
2023-03-31T02:51:48.282Z,46.41
2023-03-31T02:52:48.236Z,45.28
2023-03-31T02:53:48.280Z,47.05
2023-03-31T02:54:48.252Z,45.76
2023-03-31T02:55:48.226Z,45.12
2023-03-31T02:56:48.269Z,45.60
2023-03-31T02:57:48.232Z,46.08
2023-03-31T02:58:48.224Z,46.57
2023-03-31T02:59:48.198Z,46.57
2023-03-31T03:00:48.220Z,46.08
2023-03-31T03:01:48.210Z,45.28
2023-03-31T03:02:48.233Z,49.31
2023-03-31T03:03:48.185Z,47.05
2023-03-31T03:04:48.156Z,47.21
2023-03-31T03:05:48.190Z,47.21
2023-03-31T03:06:48.152Z,48.50
2023-03-31T03:07:48.137Z,46.73
2023-03-31T03:08:48.202Z,45.76
2023-03-31T03:09:48.129Z,46.41
2023-03-31T03:10:48.112Z,46.73
2023-03-31T03:11:48.134Z,46.25
2023-03-31T03:12:48.127Z,47.37
2023-03-31T03:13:48.110Z,46.73
2023-03-31T03:14:48.105Z,46.25
2023-03-31T03:15:48.082Z,47.70
2023-03-31T03:16:48.121Z,46.08
2023-03-31T03:17:48.132Z,46.08
2023-03-31T03:18:48.075Z,47.37
2023-03-31T03:19:48.044Z,45.60
2023-03-31T03:20:48.053Z,48.82
2023-03-31T03:21:48.040Z,46.57
2023-03-31T03:22:48.019Z,46.41
2023-03-31T03:23:48.048Z,48.34
2023-03-31T03:24:48.021Z,46.57
2023-03-31T03:25:48.017Z,46.73
2023-03-31T03:26:48.004Z,46.25
2023-03-31T03:27:48.002Z,46.08
2023-03-31T03:28:48.026Z,47.21
2023-03-31T03:29:47.978Z,46.25
2023-03-31T03:30:47.972Z,47.53
2023-03-31T03:31:47.963Z,50.60
2023-03-31T03:32:48.010Z,48.18
2023-03-31T03:33:48.099Z,48.34
2023-03-31T03:34:47.944Z,48.98
2023-03-31T03:35:47.944Z,48.82
2023-03-31T03:36:47.935Z,48.18
2023-03-31T03:37:47.921Z,46.57
2023-03-31T03:38:47.974Z,48.82
2023-03-31T03:39:47.907Z,47.05
2023-03-31T03:40:49.976Z,46.89
2023-03-31T03:41:47.902Z,48.66
2023-03-31T03:42:47.905Z,47.70
2023-03-31T03:43:47.918Z,47.70
2023-03-31T03:44:47.877Z,47.05
2023-03-31T03:45:47.869Z,48.66
2023-03-31T03:46:47.972Z,48.50
2023-03-31T03:47:47.897Z,46.89
2023-03-31T03:48:47.866Z,46.73
2023-03-31T03:49:47.885Z,49.15
2023-03-31T03:50:47.857Z,46.89
2023-03-31T03:51:47.874Z,46.73
2023-03-31T03:52:47.811Z,47.05
2023-03-31T03:53:47.882Z,47.21
2023-03-31T03:54:47.860Z,48.18
2023-03-31T03:55:47.804Z,50.27
2023-03-31T03:56:47.841Z,48.98
2023-03-31T03:57:47.791Z,47.37
2023-03-31T03:58:47.773Z,47.05
2023-03-31T03:59:47.805Z,46.73
2023-03-31T04:00:47.767Z,46.41
2023-03-31T04:01:47.781Z,48.50
2023-03-31T04:02:47.876Z,47.05
2023-03-31T04:03:47.738Z,49.31
2023-03-31T04:04:47.852Z,48.50
2023-03-31T04:05:47.722Z,47.53
2023-03-31T04:06:47.711Z,48.18
2023-03-31T04:07:47.749Z,47.21
2023-03-31T04:08:47.686Z,48.18
2023-03-31T04:09:48.717Z,47.86
2023-03-31T04:10:47.703Z,48.50
2023-03-31T04:11:47.674Z,48.34
2023-03-31T04:12:47.677Z,48.02
2023-03-31T04:13:47.667Z,48.66
2023-03-31T04:14:47.678Z,47.86
2023-03-31T04:15:47.720Z,49.15
2023-03-31T04:16:47.680Z,49.79
2023-03-31T04:17:47.666Z,49.31
2023-03-31T04:18:47.623Z,49.15
2023-03-31T04:19:47.635Z,51.88
2023-03-31T04:20:47.599Z,51.88
2023-03-31T04:21:47.592Z,48.34
2023-03-31T04:22:47.603Z,50.43
2023-03-31T04:23:47.631Z,52.53
2023-03-31T04:24:47.613Z,50.27
2023-03-31T04:25:47.566Z,50.92
2023-03-31T04:26:47.567Z,48.82
2023-03-31T04:27:47.563Z,50.92
2023-03-31T04:28:47.548Z,51.08
2023-03-31T04:29:47.631Z,49.63
2023-03-31T04:30:47.569Z,49.47
2023-03-31T04:31:48.734Z,51.24
2023-03-31T04:32:48.690Z,52.53
2023-03-31T04:33:47.694Z,52.69
2023-03-31T04:34:47.545Z,49.15
2023-03-31T04:35:47.535Z,49.63
2023-03-31T04:36:48.201Z,50.11
2023-03-31T04:37:47.492Z,51.08
2023-03-31T04:38:47.497Z,49.31
2023-03-31T04:39:47.659Z,47.05
2023-03-31T04:40:47.482Z,48.18
2023-03-31T04:41:47.469Z,49.15
2023-03-31T04:42:47.440Z,48.82
2023-03-31T04:43:47.487Z,51.40
2023-03-31T04:44:47.454Z,47.21
2023-03-31T04:45:47.502Z,49.47
2023-03-31T04:46:48.686Z,50.76
2023-03-31T04:47:47.533Z,49.47
2023-03-31T04:48:47.394Z,48.82
2023-03-31T04:49:47.416Z,49.95
2023-03-31T04:50:47.391Z,49.63
2023-03-31T04:51:47.418Z,49.31
2023-03-31T04:52:47.995Z,49.95
2023-03-31T04:53:47.365Z,49.47
2023-03-31T04:54:47.434Z,50.60
2023-03-31T04:55:47.350Z,48.82
2023-03-31T04:56:47.350Z,50.60
2023-03-31T04:57:47.331Z,50.76
2023-03-31T04:58:47.333Z,51.08
2023-03-31T04:59:47.374Z,49.31
2023-03-31T05:00:47.321Z,48.66
2023-03-31T05:01:47.328Z,49.95
2023-03-31T05:02:47.347Z,48.34
2023-03-31T05:03:47.377Z,48.82
2023-03-31T05:04:47.307Z,49.31
2023-03-31T05:05:47.281Z,48.82
2023-03-31T05:06:47.302Z,48.98
2023-03-31T05:07:47.280Z,52.05
2023-03-31T05:08:47.261Z,48.82
2023-03-31T05:09:47.276Z,49.79
2023-03-31T05:10:47.257Z,51.40
2023-03-31T05:11:47.291Z,50.43
2023-03-31T05:12:47.246Z,50.43
2023-03-31T05:13:47.227Z,50.92
2023-03-31T05:14:47.269Z,51.40
2023-03-31T05:15:47.218Z,47.86
2023-03-31T05:16:47.231Z,50.92
2023-03-31T05:17:47.272Z,48.66
2023-03-31T05:18:47.199Z,48.98
2023-03-31T05:19:47.202Z,51.88
2023-03-31T05:20:47.192Z,52.05
2023-03-31T05:21:47.179Z,50.27
2023-03-31T05:22:47.172Z,52.05
2023-03-31T05:23:47.152Z,49.79
2023-03-31T05:24:47.189Z,47.70
2023-03-31T05:25:47.138Z,49.63
2023-03-31T05:26:47.144Z,49.47
2023-03-31T05:27:47.179Z,49.63
2023-03-31T05:28:47.109Z,49.47
2023-03-31T05:29:47.137Z,50.11
2023-03-31T05:30:47.154Z,48.02
2023-03-31T05:31:47.141Z,48.18
2023-03-31T05:32:47.112Z,49.95
2023-03-31T05:33:47.088Z,50.76
2023-03-31T05:34:47.101Z,50.27
2023-03-31T05:35:47.104Z,50.11
2023-03-31T05:36:47.088Z,51.56
2023-03-31T05:37:47.090Z,50.92
2023-03-31T05:38:47.047Z,48.98
2023-03-31T05:39:47.077Z,48.66
2023-03-31T05:40:47.055Z,50.43
2023-03-31T05:41:47.022Z,50.60
2023-03-31T05:42:47.030Z,50.76
2023-03-31T05:43:47.011Z,48.98
2023-03-31T05:44:47.029Z,49.79
2023-03-31T05:45:47.022Z,48.98
2023-03-31T05:46:47.121Z,50.92
2023-03-31T05:47:47.118Z,50.11
2023-03-31T05:48:46.987Z,49.31
2023-03-31T05:49:46.989Z,51.72
2023-03-31T05:50:46.968Z,50.76
2023-03-31T05:51:46.975Z,48.66
2023-03-31T05:52:46.958Z,48.50
2023-03-31T05:53:46.935Z,51.40
2023-03-31T05:54:46.958Z,49.63
2023-03-31T05:55:46.936Z,49.15
2023-03-31T05:56:46.935Z,49.47
2023-03-31T05:57:46.949Z,50.27
2023-03-31T05:58:46.919Z,49.15
2023-03-31T05:59:46.916Z,47.05
2023-03-31T06:00:46.941Z,48.98
2023-03-31T06:01:46.973Z,51.24
2023-03-31T06:02:47.013Z,47.37
2023-03-31T06:03:46.980Z,49.79
2023-03-31T06:04:46.904Z,47.53
2023-03-31T06:05:46.859Z,49.79
2023-03-31T06:06:46.867Z,51.72
2023-03-31T06:07:46.899Z,50.60
2023-03-31T06:08:46.867Z,51.08
2023-03-31T06:09:46.837Z,50.27
2023-03-31T06:10:46.826Z,49.63
2023-03-31T06:11:47.926Z,51.08
2023-03-31T06:12:46.835Z,50.60
2023-03-31T06:13:46.813Z,48.34
2023-03-31T06:14:46.844Z,47.70
2023-03-31T06:15:46.801Z,49.47
2023-03-31T06:16:46.783Z,49.47
2023-03-31T06:17:46.836Z,49.15
2023-03-31T06:18:46.782Z,48.02
2023-03-31T06:19:46.827Z,50.11
2023-03-31T06:20:46.758Z,50.11
2023-03-31T06:21:46.752Z,47.53
2023-03-31T06:22:46.739Z,49.15
2023-03-31T06:23:46.752Z,49.31
2023-03-31T06:24:46.772Z,47.86
2023-03-31T06:25:51.517Z,48.82
2023-03-31T06:26:48.723Z,49.79
2023-03-31T06:27:46.714Z,49.31
2023-03-31T06:28:46.694Z,46.73
2023-03-31T06:29:46.714Z,50.60
2023-03-31T06:30:46.704Z,46.57
2023-03-31T06:31:46.683Z,47.86
2023-03-31T06:32:46.751Z,48.18
2023-03-31T06:33:46.678Z,50.76
2023-03-31T06:34:46.659Z,49.47
2023-03-31T06:35:46.652Z,49.79
2023-03-31T06:36:46.664Z,50.60
2023-03-31T06:37:46.637Z,48.18
2023-03-31T06:38:46.644Z,48.34
2023-03-31T06:39:46.680Z,48.18
2023-03-31T06:40:46.626Z,49.15
2023-03-31T06:41:46.609Z,50.60
2023-03-31T06:42:46.603Z,51.40
2023-03-31T06:43:46.662Z,49.63
2023-03-31T06:44:46.608Z,48.18
2023-03-31T06:45:46.620Z,48.34
2023-03-31T06:46:47.609Z,49.95
2023-03-31T06:47:46.613Z,47.21
2023-03-31T06:48:46.557Z,48.98
2023-03-31T06:49:46.569Z,47.70
2023-03-31T06:50:46.559Z,49.31
2023-03-31T06:51:46.532Z,48.98
2023-03-31T06:52:46.528Z,48.98
2023-03-31T06:53:46.517Z,51.88
2023-03-31T06:54:46.534Z,51.40
2023-03-31T06:55:46.527Z,50.11
2023-03-31T06:56:46.534Z,50.92
2023-03-31T06:57:46.487Z,49.31
2023-03-31T06:58:46.491Z,50.43
2023-03-31T06:59:46.595Z,49.79
2023-03-31T07:00:46.494Z,50.27
2023-03-31T07:01:46.529Z,48.82
2023-03-31T07:02:46.560Z,49.79
2023-03-31T07:03:46.542Z,50.76
2023-03-31T07:04:46.463Z,49.79
2023-03-31T07:05:46.443Z,51.72
2023-03-31T07:06:46.427Z,50.43
2023-03-31T07:07:46.628Z,49.15
2023-03-31T07:08:47.426Z,50.11
2023-03-31T07:09:46.407Z,51.24
2023-03-31T07:10:46.420Z,50.11
2023-03-31T07:11:46.427Z,50.92
2023-03-31T07:12:46.407Z,50.11
2023-03-31T07:13:46.426Z,50.43
2023-03-31T07:14:46.381Z,50.27
2023-03-31T07:15:46.552Z,51.88
2023-03-31T07:16:46.427Z,50.76
2023-03-31T07:17:47.371Z,50.92
2023-03-31T07:18:46.337Z,50.76
2023-03-31T07:19:46.345Z,49.95
2023-03-31T07:20:46.394Z,50.60
2023-03-31T07:21:46.334Z,51.56
2023-03-31T07:22:46.313Z,51.08
2023-03-31T07:23:46.331Z,52.69
2023-03-31T07:24:46.314Z,51.24
2023-03-31T07:25:46.324Z,49.79
2023-03-31T07:26:46.275Z,51.08
2023-03-31T07:27:46.282Z,50.60
2023-03-31T07:28:46.264Z,50.76
2023-03-31T07:29:46.253Z,50.76
2023-03-31T07:30:46.278Z,51.72
2023-03-31T07:31:46.264Z,53.33
2023-03-31T07:32:46.267Z,53.01
2023-03-31T07:33:46.269Z,51.08
2023-03-31T07:34:46.219Z,52.53
2023-03-31T07:35:51.694Z,52.53
2023-03-31T07:36:47.228Z,51.56
2023-03-31T07:37:46.191Z,50.60
2023-03-31T07:38:46.226Z,50.92
2023-03-31T07:39:46.196Z,49.47
2023-03-31T07:40:50.862Z,49.15
2023-03-31T07:41:47.168Z,50.27
2023-03-31T07:42:47.929Z,50.76
2023-03-31T07:43:46.161Z,50.92
2023-03-31T07:44:46.156Z,50.60
2023-03-31T07:45:46.216Z,50.11
2023-03-31T07:46:46.178Z,50.27
2023-03-31T07:47:46.235Z,49.31
2023-03-31T07:48:46.135Z,50.60
2023-03-31T07:49:46.243Z,51.40
2023-03-31T07:50:46.134Z,52.05
2023-03-31T07:51:46.109Z,51.40
2023-03-31T07:52:47.047Z,50.11
2023-03-31T07:53:47.092Z,51.56
2023-03-31T07:54:46.100Z,52.69
2023-03-31T07:55:46.105Z,52.37
2023-03-31T07:56:46.106Z,53.01
2023-03-31T07:57:46.131Z,51.40
2023-03-31T07:58:46.059Z,53.01
2023-03-31T07:59:46.068Z,50.92
2023-03-31T08:00:46.082Z,49.79
2023-03-31T08:01:46.046Z,50.76
2023-03-31T08:02:46.112Z,51.24
2023-03-31T08:03:46.055Z,47.86
2023-03-31T08:04:46.062Z,47.86
2023-03-31T08:05:46.022Z,51.08
2023-03-31T08:06:46.027Z,52.53
2023-03-31T08:07:45.993Z,53.17
2023-03-31T08:08:45.988Z,53.82
2023-03-31T08:09:45.976Z,54.79
2023-03-31T08:10:46.014Z,53.82
2023-03-31T08:11:46.891Z,53.01
2023-03-31T08:12:46.968Z,51.72
2023-03-31T08:13:45.955Z,51.40
2023-03-31T08:14:45.922Z,50.60
2023-03-31T08:15:46.969Z,49.79
2023-03-31T08:16:45.945Z,49.31
2023-03-31T08:17:45.945Z,50.11
2023-03-31T08:18:45.904Z,50.60
2023-03-31T08:19:45.889Z,52.69
2023-03-31T08:20:48.333Z,47.70
2023-03-31T08:21:45.916Z,48.02
2023-03-31T08:22:45.873Z,48.18
2023-03-31T08:23:45.862Z,48.98
2023-03-31T08:24:45.862Z,48.98
2023-03-31T08:25:45.882Z,48.82
2023-03-31T08:26:45.851Z,48.50
2023-03-31T08:27:45.834Z,47.37
2023-03-31T08:28:45.832Z,47.86
2023-03-31T08:29:45.827Z,48.18
2023-03-31T08:30:45.831Z,49.95
2023-03-31T08:31:45.902Z,47.70
2023-03-31T08:32:45.846Z,48.34
2023-03-31T08:33:45.833Z,47.21
2023-03-31T08:34:45.784Z,48.66
2023-03-31T08:35:45.855Z,48.66
2023-03-31T08:36:45.820Z,46.89
2023-03-31T08:37:45.781Z,48.50
2023-03-31T08:38:45.793Z,47.53
2023-03-31T08:39:45.760Z,48.82
2023-03-31T08:40:45.771Z,48.34
2023-03-31T08:41:45.756Z,47.86
2023-03-31T08:42:45.741Z,46.08
2023-03-31T08:43:46.450Z,46.57
2023-03-31T08:44:45.748Z,46.57
2023-03-31T08:45:45.790Z,46.89
2023-03-31T08:46:45.719Z,48.18
2023-03-31T08:47:45.780Z,48.34
2023-03-31T08:48:45.702Z,47.86
2023-03-31T08:49:45.685Z,48.18
2023-03-31T08:50:45.772Z,47.05
2023-03-31T08:51:45.698Z,48.02
2023-03-31T08:52:45.740Z,48.34
2023-03-31T08:53:45.670Z,49.47
2023-03-31T08:54:45.670Z,47.05
2023-03-31T08:55:45.672Z,49.31
2023-03-31T08:56:45.668Z,47.70
2023-03-31T08:57:45.647Z,45.76
2023-03-31T08:58:45.625Z,49.47
2023-03-31T08:59:45.621Z,49.31
2023-03-31T09:00:46.066Z,49.31
2023-03-31T09:01:55.468Z,49.63
2023-03-31T09:02:47.654Z,48.82
2023-03-31T09:03:45.647Z,47.86
2023-03-31T09:04:45.608Z,47.53
2023-03-31T09:05:57.345Z,46.89
2023-03-31T09:06:47.570Z,50.92
2023-03-31T09:07:45.550Z,49.31
2023-03-31T09:08:46.549Z,47.53
2023-03-31T09:09:45.558Z,50.27
2023-03-31T09:10:45.553Z,47.53
2023-03-31T09:11:45.630Z,48.66
2023-03-31T09:12:45.542Z,49.95
2023-03-31T09:13:45.524Z,47.21
2023-03-31T09:14:45.525Z,48.66
2023-03-31T09:15:45.497Z,48.98
2023-03-31T09:16:45.560Z,48.98
2023-03-31T09:17:45.510Z,47.37
2023-03-31T09:18:45.478Z,50.11
2023-03-31T09:19:45.475Z,48.82
2023-03-31T09:20:45.460Z,50.43
2023-03-31T09:21:45.463Z,49.31
2023-03-31T09:22:45.441Z,47.86
2023-03-31T09:23:45.437Z,49.47
2023-03-31T09:24:45.434Z,51.40
2023-03-31T09:25:45.430Z,48.98
2023-03-31T09:26:45.431Z,47.05
2023-03-31T09:27:45.410Z,48.66
2023-03-31T09:28:46.433Z,51.08
2023-03-31T09:29:45.404Z,47.05
2023-03-31T09:30:45.396Z,48.82
2023-03-31T09:31:45.435Z,48.82
2023-03-31T09:32:45.487Z,49.31
2023-03-31T09:33:45.365Z,49.15
2023-03-31T09:34:45.364Z,50.43
2023-03-31T09:35:46.583Z,50.27
2023-03-31T09:36:46.370Z,46.73
2023-03-31T09:37:45.623Z,47.53
2023-03-31T09:38:45.331Z,49.79
2023-03-31T09:39:45.351Z,49.15
2023-03-31T09:40:45.335Z,49.15
2023-03-31T09:41:45.351Z,47.37
2023-03-31T09:42:45.353Z,48.50
2023-03-31T09:43:45.318Z,48.98
2023-03-31T09:44:45.329Z,48.82
2023-03-31T09:45:57.698Z,50.76
2023-03-31T09:46:47.332Z,50.27
2023-03-31T09:47:45.331Z,48.34
2023-03-31T09:48:45.258Z,47.37
2023-03-31T09:49:54.224Z,47.05
2023-03-31T09:50:46.245Z,47.37
2023-03-31T09:51:45.258Z,48.82
2023-03-31T09:52:45.252Z,48.18
2023-03-31T09:53:45.225Z,49.95
2023-03-31T09:54:45.211Z,49.79
2023-03-31T09:55:45.213Z,50.27
2023-03-31T09:56:45.249Z,49.79
2023-03-31T09:57:45.195Z,48.98
2023-03-31T09:58:45.188Z,48.82
2023-03-31T09:59:45.190Z,49.47
2023-03-31T10:00:45.175Z,48.82
2023-03-31T10:01:45.240Z,48.66
2023-03-31T10:02:45.188Z,48.18
2023-03-31T10:03:45.175Z,49.47
2023-03-31T10:04:45.149Z,47.86
2023-03-31T10:05:45.135Z,49.15
2023-03-31T10:06:45.157Z,48.82
2023-03-31T10:07:45.196Z,49.15
2023-03-31T10:08:45.148Z,48.02
2023-03-31T10:09:45.110Z,49.47
2023-03-31T10:10:45.109Z,48.82
2023-03-31T10:11:45.121Z,49.47
2023-03-31T10:12:45.102Z,48.66
2023-03-31T10:13:45.094Z,48.82
2023-03-31T10:14:45.074Z,47.37
2023-03-31T10:15:45.104Z,48.82
2023-03-31T10:16:45.092Z,48.02
2023-03-31T10:17:55.011Z,48.02
2023-03-31T10:18:47.072Z,47.53
2023-03-31T10:19:45.043Z,48.34
2023-03-31T10:20:45.042Z,52.21
2023-03-31T10:21:45.038Z,45.76
2023-03-31T10:22:45.105Z,50.11
2023-03-31T10:23:45.010Z,50.27
2023-03-31T10:24:45.005Z,47.70
2023-03-31T10:25:45.001Z,47.70
2023-03-31T10:26:45.057Z,49.31
2023-03-31T10:27:44.989Z,48.98
2023-03-31T10:28:44.976Z,50.60
2023-03-31T10:29:44.984Z,47.21
2023-03-31T10:30:44.960Z,47.21
2023-03-31T10:31:45.005Z,45.12
2023-03-31T10:32:45.903Z,46.41
2023-03-31T10:33:45.059Z,42.86
2023-03-31T10:34:44.951Z,48.18
2023-03-31T10:35:44.964Z,45.28
2023-03-31T10:36:44.937Z,48.82
2023-03-31T10:37:44.935Z,47.53
2023-03-31T10:38:44.906Z,45.12
2023-03-31T10:39:44.900Z,48.18
2023-03-31T10:40:44.946Z,45.44
2023-03-31T10:41:44.887Z,47.37
2023-03-31T10:42:44.882Z,46.57
2023-03-31T10:43:44.875Z,46.41
2023-03-31T10:44:44.860Z,48.02
2023-03-31T10:45:44.889Z,47.53
2023-03-31T10:46:44.916Z,48.02
2023-03-31T10:47:44.904Z,46.73
2023-03-31T10:48:44.846Z,46.73
2023-03-31T10:49:44.860Z,49.63
2023-03-31T10:50:44.832Z,48.50
2023-03-31T10:51:44.803Z,47.70
2023-03-31T10:52:44.840Z,44.79
2023-03-31T10:53:44.953Z,45.44
2023-03-31T10:54:44.808Z,47.37
2023-03-31T10:55:44.785Z,44.63
2023-03-31T10:56:44.834Z,46.08
2023-03-31T10:57:44.862Z,44.15
2023-03-31T10:58:52.034Z,48.18
2023-03-31T10:59:46.778Z,48.34
2023-03-31T11:00:44.739Z,48.98
2023-03-31T11:01:44.851Z,52.05
2023-03-31T11:02:44.782Z,51.56
2023-03-31T11:03:44.900Z,50.11
2023-03-31T11:04:44.724Z,48.34
2023-03-31T11:05:44.709Z,50.27
2023-03-31T11:06:44.697Z,48.98
2023-03-31T11:07:44.723Z,52.37
2023-03-31T11:08:44.712Z,49.79
2023-03-31T11:09:44.702Z,51.72
2023-03-31T11:10:44.768Z,46.57
2023-03-31T11:11:44.688Z,49.47
2023-03-31T11:12:44.674Z,48.66
2023-03-31T11:13:44.715Z,47.05
2023-03-31T11:14:44.640Z,51.88
2023-03-31T11:15:44.668Z,49.47
2023-03-31T11:16:44.680Z,46.41
2023-03-31T11:17:44.684Z,46.08
2023-03-31T11:18:44.625Z,47.05
2023-03-31T11:19:44.602Z,46.57
2023-03-31T11:20:44.614Z,48.18
2023-03-31T11:21:44.592Z,47.37
2023-03-31T11:22:44.599Z,46.57
2023-03-31T11:23:44.612Z,47.86
2023-03-31T11:24:44.568Z,48.98
2023-03-31T11:25:44.555Z,49.63
2023-03-31T11:26:44.576Z,49.31
2023-03-31T11:27:44.570Z,47.53
2023-03-31T11:28:44.559Z,45.60
2023-03-31T11:29:44.551Z,45.92
2023-03-31T11:30:44.526Z,50.11
2023-03-31T11:31:44.595Z,50.43
2023-03-31T11:32:44.570Z,51.56
2023-03-31T11:33:44.521Z,48.66
2023-03-31T11:34:44.574Z,47.70
2023-03-31T11:35:44.513Z,48.34
2023-03-31T11:36:44.503Z,49.31
2023-03-31T11:37:44.505Z,49.63
2023-03-31T11:38:44.494Z,49.31
2023-03-31T11:39:44.533Z,52.21
2023-03-31T11:40:44.464Z,50.43
2023-03-31T11:41:44.459Z,50.76
2023-03-31T11:42:44.486Z,50.11
2023-03-31T11:43:44.433Z,45.92
2023-03-31T11:44:44.415Z,49.15
2023-03-31T11:45:44.449Z,48.50
2023-03-31T11:46:44.482Z,51.56
2023-03-31T11:47:44.439Z,48.18
2023-03-31T11:48:44.407Z,49.15
2023-03-31T11:49:44.391Z,50.76
2023-03-31T11:50:44.392Z,48.66
2023-03-31T11:51:44.388Z,49.95
2023-03-31T11:52:44.416Z,48.66
2023-03-31T11:53:44.378Z,53.01
2023-03-31T11:54:44.364Z,48.18
2023-03-31T11:55:44.355Z,49.15
2023-03-31T11:56:44.437Z,50.60
2023-03-31T11:57:44.355Z,48.50
2023-03-31T11:58:44.331Z,49.47
2023-03-31T11:59:44.348Z,48.66
2023-03-31T12:00:44.357Z,52.69
2023-03-31T12:01:44.309Z,48.50
2023-03-31T12:02:44.383Z,49.15
2023-03-31T12:03:44.358Z,47.86
2023-03-31T12:04:44.313Z,49.63
2023-03-31T12:05:44.336Z,48.50
2023-03-31T12:06:44.265Z,49.79
2023-03-31T12:07:44.279Z,49.15
2023-03-31T12:08:44.265Z,49.31
2023-03-31T12:09:44.265Z,47.53
2023-03-31T12:10:44.250Z,47.86
2023-03-31T12:11:44.252Z,46.08
2023-03-31T12:12:44.301Z,45.60
2023-03-31T12:13:44.221Z,48.98
2023-03-31T12:14:44.208Z,48.98
2023-03-31T12:15:44.245Z,49.47
2023-03-31T12:16:44.201Z,48.82
2023-03-31T12:17:44.462Z,51.88
2023-03-31T12:18:44.186Z,50.43
2023-03-31T12:19:44.178Z,53.82
2023-03-31T12:20:44.184Z,53.50
2023-03-31T12:21:44.156Z,57.04
2023-03-31T12:22:44.385Z,57.04
2023-03-31T12:23:44.171Z,57.20
2023-03-31T12:24:44.144Z,51.72
2023-03-31T12:25:44.138Z,51.08
2023-03-31T12:26:44.135Z,49.15
2023-03-31T12:27:44.405Z,48.02
2023-03-31T12:28:44.142Z,53.66
2023-03-31T12:29:44.119Z,49.15
2023-03-31T12:30:44.133Z,48.82
2023-03-31T12:31:44.105Z,50.27
2023-03-31T12:32:44.531Z,50.11
2023-03-31T12:33:44.085Z,50.27
2023-03-31T12:34:44.068Z,48.98
2023-03-31T12:35:44.090Z,50.60
2023-03-31T12:36:44.123Z,49.31
2023-03-31T12:37:44.076Z,48.50
2023-03-31T12:38:44.081Z,47.05
2023-03-31T12:39:44.059Z,49.47
2023-03-31T12:40:44.037Z,49.63
2023-03-31T12:41:44.081Z,48.98
2023-03-31T12:42:44.047Z,48.82
2023-03-31T12:43:44.037Z,50.27
2023-03-31T12:44:44.022Z,43.34
2023-03-31T12:45:44.033Z,42.86
2023-03-31T12:46:44.073Z,46.25
2023-03-31T12:47:44.041Z,47.86
2023-03-31T12:48:43.991Z,47.21
2023-03-31T12:49:44.006Z,49.79
2023-03-31T12:50:43.974Z,48.18
2023-03-31T12:51:44.002Z,47.05
2023-03-31T12:52:43.979Z,46.73